Time;durP1;ratioP1;P1;durP2;ratioP2;P2;SDS_P1;SDS_P2;PMS_P1;PMS_P2;Temp;Humidity;BMP_temperature;BMP_pressure;BME280_temperature;BME280_humidity;BME280_pressure;Samples;Min_cycle;Max_cycle;Signal;HPM_P1;HPM_P2
2021/12/21 00:00:32;;;;;;;2.70;2.17;;;1.80;99.90;1.00;101547.00;;;;5036382;27;93898;-71
2021/12/21 00:02:58;;;;;;;2.70;2.23;;;1.30;99.90;1.00;101545.00;;;;5014506;27;93362;-71
2021/12/21 00:05:28;;;;;;;6.57;2.97;;;1.40;99.90;1.10;101543.00;;;;5032677;27;107240;-71
2021/12/21 00:07:55;;;;;;;10.03;3.20;;;1.40;99.90;1.00;101547.00;;;;5047372;27;93205;-71
2021/12/21 00:10:25;;;;;;;6.00;3.60;;;0.00;99.90;1.00;101549.00;;;;5052754;27;92751;-71
2021/12/21 00:15:39;;;;;;;4.93;3.10;;;1.40;99.90;1.00;101549.00;;;;5030839;27;93029;-71
2021/12/21 00:26:04;;;;;;;4.83;2.83;;;1.30;99.90;0.90;101529.00;;;;5044292;27;93815;-71
2021/12/21 00:28:37;;;;;;;3.50;2.23;;;1.30;99.90;0.90;101531.00;;;;5018150;27;93109;-70
2021/12/21 00:31:03;;;;;;;3.43;2.77;;;1.20;99.90;0.90;101524.00;;;;5036101;27;92987;-70
2021/12/21 00:33:29;;;;;;;7.00;3.20;;;1.10;99.90;0.80;101516.00;;;;5045831;27;93228;-69
2021/12/21 00:35:54;;;;;;;6.50;3.50;;;1.60;99.90;0.80;101518.00;;;;5055965;27;92942;-68
2021/12/21 00:38:20;;;;;;;3.87;2.40;;;1.10;99.90;0.80;101520.00;;;;5057104;27;97539;-69
2021/12/21 00:40:46;;;;;;;2.97;2.33;;;1.30;99.90;0.80;101521.00;;;;5056369;27;92926;-69
2021/12/21 00:43:12;;;;;;;3.20;2.43;;;1.10;99.90;0.80;101524.00;;;;5055671;27;122629;-69
2021/12/21 00:45:37;;;;;;;8.20;3.30;;;1.10;99.90;0.80;101531.00;;;;5036098;27;121582;-69
2021/12/21 00:48:04;;;;;;;7.87;3.47;;;1.90;99.90;0.80;101530.00;;;;5056238;27;92931;-69
2021/12/21 00:50:30;;;;;;;3.27;2.50;;;1.10;99.90;0.90;101529.00;;;;5055392;27;93982;-69
2021/12/21 00:52:56;;;;;;;5.87;3.50;;;1.10;99.90;0.90;101527.00;;;;5054124;27;93023;-69
2021/12/21 00:55:23;;;;;;;4.13;3.13;;;1.20;99.90;1.00;101529.00;;;;5036125;27;93027;-69
2021/12/21 00:57:49;;;;;;;3.53;2.63;;;1.70;99.90;1.00;101523.00;;;;5035778;27;96813;-69
2021/12/21 01:00:18;;;;;;;8.40;3.53;;;1.30;99.90;1.10;101524.00;;;;5035100;27;93990;-69
2021/12/21 01:02:44;;;;;;;9.33;3.60;;;1.30;99.90;1.00;101539.00;;;;5035302;27;92935;-69
2021/12/21 01:05:25;;;;;;;6.07;3.03;;;1.90;99.90;1.00;101527.00;;;;5035935;27;93140;-68
2021/12/21 01:07:54;;;;;;;3.67;2.67;;;1.30;99.90;1.10;101520.00;;;;5026659;27;92542;-68
2021/12/21 01:18:18;;;;;;;2.63;2.43;;;3.10;99.90;1.20;101534.00;;;;5040578;27;93164;-69
2021/12/21 01:21:01;;;;;;;3.10;2.50;;;2.40;99.90;1.20;101537.00;;;;5055494;27;92728;-69
2021/12/21 01:23:49;;;;;;;5.80;3.23;;;2.10;99.90;1.20;101533.00;;;;5038793;27;92911;-69
2021/12/21 01:28:57;;;;;;;5.90;2.87;;;1.50;99.90;1.30;101539.00;;;;5055205;27;92824;-69
2021/12/21 01:34:19;;;;;;;3.67;2.57;;;2.30;99.90;1.30;101524.00;;;;5053238;27;92166;-70
2021/12/21 01:36:52;;;;;;;4.63;2.83;;;2.20;99.90;1.30;101527.00;;;;5054162;27;92878;-70
2021/12/21 01:49:49;;;;;;;3.00;2.63;;;1.70;99.90;1.40;101527.00;;;;5032727;27;92762;-71
2021/12/21 01:52:19;;;;;;;2.47;2.00;;;2.00;99.90;1.40;101525.00;;;;5017344;27;93208;-71
2021/12/21 01:54:47;;;;;;;10.20;3.37;;;1.60;99.90;1.40;101527.00;;;;5017848;27;92938;-71
2021/12/21 01:57:13;;;;;;;10.07;3.77;;;1.70;99.90;1.40;101530.00;;;;5034657;27;93532;-70
2021/12/21 01:59:42;;;;;;;6.67;2.70;;;2.40;99.90;1.30;101524.00;;;;5035173;27;98055;-69
2021/12/21 02:02:11;;;;;;;3.93;3.27;;;1.60;99.90;1.30;101524.00;;;;5033955;27;97414;-68
2021/12/21 02:04:39;;;;;;;15.17;3.87;;;1.60;99.90;1.20;101522.00;;;;5033718;27;106568;-68
2021/12/21 02:07:06;;;;;;;7.03;2.87;;;1.60;99.90;1.20;101514.00;;;;5045505;27;110238;-70
2021/12/21 02:09:38;;;;;;;6.47;3.53;;;1.50;99.90;1.20;101524.00;;;;5034911;27;97257;-70
2021/12/21 02:12:16;;;;;;;5.83;3.00;;;1.50;99.90;1.10;101521.00;;;;5034987;27;92984;-69
2021/12/21 02:14:53;;;;;;;3.57;3.10;;;1.50;99.90;1.10;101512.00;;;;5045366;27;94291;-70
2021/12/21 02:22:57;;;;;;;9.57;3.40;;;1.50;99.90;1.10;101502.00;;;;5033217;27;93212;-69
2021/12/21 02:30:22;;;;;;;3.97;3.00;;;2.10;99.90;1.10;101501.00;;;;5051947;27;93281;-69
2021/12/21 02:32:49;;;;;;;6.60;4.00;;;1.40;99.90;1.20;101507.00;;;;5052530;27;94146;-68
2021/12/21 02:35:16;;;;;;;10.23;3.60;;;1.50;99.90;1.20;101498.00;;;;5052372;27;105954;-67
2021/12/21 02:37:42;;;;;;;4.83;3.40;;;1.60;99.90;1.20;101498.00;;;;5055047;27;92635;-69
2021/12/21 02:40:08;;;;;;;4.27;3.33;;;1.50;99.90;1.20;101495.00;;;;5053520;27;111589;-67
2021/12/21 02:42:34;;;;;;;5.10;2.50;;;1.60;99.90;1.20;101488.00;;;;5053062;27;93890;-68
2021/12/21 02:45:00;;;;;;;6.10;3.67;;;1.50;99.90;1.20;101493.00;;;;5040899;27;92984;-69
2021/12/21 02:47:26;;;;;;;6.97;3.13;;;1.50;99.90;1.20;101475.00;;;;5015005;27;121990;-68
2021/12/21 02:49:52;;;;;;;5.43;3.67;;;1.90;99.90;1.10;101483.00;;;;5034573;27;94155;-68
2021/12/21 02:52:18;;;;;;;3.97;2.87;;;2.50;99.90;1.10;101490.00;;;;5034098;27;93017;-69
2021/12/21 02:54:43;;;;;;;4.43;3.20;;;1.70;99.90;1.10;101494.00;;;;5033270;27;121528;-68
2021/12/21 02:57:09;;;;;;;4.73;3.57;;;2.20;99.90;1.10;101472.00;;;;5032477;27;120913;-69
2021/12/21 02:59:35;;;;;;;7.27;3.30;;;1.30;99.90;1.00;101466.00;;;;5033976;27;92849;-68
2021/12/21 03:02:00;;;;;;;5.63;3.47;;;1.60;99.90;1.00;101468.00;;;;5033493;27;93067;-69
2021/12/21 03:04:26;;;;;;;6.57;4.63;;;1.30;99.90;0.90;101472.00;;;;5026129;27;122328;-68
2021/12/21 03:12:09;;;;;;;5.27;3.50;;;1.90;99.90;0.80;101462.00;;;;5032209;27;98356;-67
2021/12/21 03:14:36;;;;;;;5.83;3.77;;;1.50;99.90;0.80;101472.00;;;;5034362;27;92136;-69
2021/12/21 03:17:02;;;;;;;7.00;4.00;;;2.00;99.90;0.70;101454.00;;;;5033317;27;92917;-70
2021/12/21 03:19:28;;;;;;;7.47;3.80;;;1.30;99.90;0.70;101458.00;;;;5033803;27;92600;-70
2021/12/21 03:21:53;;;;;;;5.63;3.80;;;1.00;99.90;0.70;101449.00;;;;5037760;27;108874;-71
2021/12/21 03:24:20;;;;;;;6.37;3.77;;;1.00;99.90;0.70;101456.00;;;;5016951;27;121128;-69
2021/12/21 03:26:46;;;;;;;6.73;4.57;;;1.40;99.90;0.70;101449.00;;;;5014190;27;116407;-69
2021/12/21 03:29:12;;;;;;;6.97;4.73;;;1.60;99.90;0.70;101448.00;;;;5049222;27;92812;-69
2021/12/21 03:31:38;;;;;;;7.37;3.73;;;1.00;99.90;0.60;101440.00;;;;5052241;27;109052;-70
2021/12/21 03:34:05;;;;;;;5.30;4.23;;;1.00;99.90;0.60;101452.00;;;;5032903;27;93174;-70
2021/12/21 03:36:32;;;;;;;9.10;3.90;;;1.40;99.90;0.60;101438.00;;;;5035027;27;92968;-71
2021/12/21 03:41:29;;;;;;;8.83;5.27;;;0.40;99.90;0.60;101448.00;;;;5052347;27;92780;-70
2021/12/21 03:43:59;;;;;;;5.87;4.50;;;1.70;99.90;0.60;101447.00;;;;5032280;27;122052;-70
2021/12/21 03:46:25;;;;;;;13.27;4.90;;;1.60;99.90;0.60;101444.00;;;;5031875;27;93842;-71
2021/12/21 03:48:51;;;;;;;8.37;5.33;;;0.90;99.90;0.60;101438.00;;;;5049006;27;92859;-70
2021/12/21 03:51:19;;;;;;;8.23;4.90;;;1.70;99.90;0.60;101434.00;;;;5034772;27;93027;-72
2021/12/21 03:53:46;;;;;;;7.87;5.53;;;1.80;99.90;0.60;101427.00;;;;5034279;27;93212;-72
2021/12/21 03:56:38;;;;;;;7.00;4.97;;;1.40;99.90;0.60;101438.00;;;;5034319;27;92917;-72
2021/12/21 03:59:05;;;;;;;8.37;5.07;;;1.80;99.90;0.50;101438.00;;;;5040980;27;92835;-73
2021/12/21 04:01:31;;;;;;;7.80;6.47;;;0.90;99.90;0.50;101429.00;;;;5011265;27;92954;-71
2021/12/21 04:03:56;;;;;;;13.70;6.27;;;1.50;99.90;0.50;101432.00;;;;5056051;27;122069;-72
2021/12/21 04:06:22;;;;;;;5.47;4.67;;;1.90;99.90;0.50;101422.00;;;;5048013;27;94432;-73
2021/12/21 04:08:48;;;;;;;9.77;5.70;;;0.80;99.90;0.40;101430.00;;;;5047446;27;110588;-74
2021/12/21 04:11:13;;;;;;;10.67;6.47;;;1.30;99.90;0.40;101421.00;;;;5035976;27;108930;-72
2021/12/21 04:13:39;;;;;;;8.97;6.37;;;1.70;99.90;0.30;101422.00;;;;5056587;27;93102;-70
2021/12/21 04:16:06;;;;;;;15.20;6.83;;;0.60;99.90;0.20;101433.00;;;;5055967;27;105326;-70
2021/12/21 04:18:36;;;;;;;9.53;5.20;;;0.60;99.90;0.20;101432.00;;;;5057011;27;92904;-70
2021/12/21 04:21:04;;;;;;;9.97;6.70;;;1.40;99.90;0.20;101422.00;;;;5049112;27;93035;-70
2021/12/21 04:23:30;;;;;;;9.50;6.03;;;1.40;99.90;0.10;101430.00;;;;5017343;27;93279;-70
2021/12/21 04:25:56;;;;;;;8.17;6.10;;;1.00;99.90;0.10;101423.00;;;;5035096;27;120404;-70
2021/12/21 04:28:22;;;;;;;9.40;6.37;;;0.40;99.90;0.10;101415.00;;;;5035654;27;97948;-70
2021/12/21 04:30:47;;;;;;;13.60;6.40;;;0.40;99.90;0.10;101419.00;;;;4999170;27;107804;-70
2021/12/21 04:33:13;;;;;;;12.03;7.17;;;1.10;99.90;0.10;101412.00;;;;5034484;27;123117;-70
2021/12/21 04:35:39;;;;;;;13.73;8.10;;;0.40;99.90;0.10;101405.00;;;;5054331;27;121720;-70
2021/12/21 04:38:26;;;;;;;9.60;5.97;;;0.50;99.90;0.10;101417.00;;;;5056264;27;96648;-70
2021/12/21 04:41:01;;;;;;;8.03;7.20;;;1.40;99.90;0.10;101407.00;;;;5055207;27;92793;-70
2021/12/21 04:43:26;;;;;;;11.47;7.07;;;0.40;99.90;0.10;101412.00;;;;5055672;27;93052;-70
2021/12/21 04:45:52;;;;;;;10.03;6.57;;;0.40;99.90;0.10;101400.00;;;;5056332;27;98773;-70
2021/12/21 04:48:18;;;;;;;11.43;6.77;;;0.40;99.90;0.10;101406.00;;;;5047402;27;108867;-70
2021/12/21 04:50:44;;;;;;;13.27;7.67;;;0.50;99.90;0.20;101397.00;;;;5034720;27;108183;-71
2021/12/21 04:53:10;;;;;;;10.53;7.47;;;0.50;99.90;0.20;101410.00;;;;5017497;27;92745;-70
2021/12/21 04:55:36;;;;;;;14.23;7.43;;;0.60;99.90;0.20;101413.00;;;;5016522;27;101310;-69
2021/12/21 04:58:03;;;;;;;11.87;6.70;;;1.30;99.90;0.20;101419.00;;;;5035220;27;110422;-71
2021/12/21 05:00:29;;;;;;;12.43;7.93;;;0.60;99.90;0.20;101415.00;;;;5016004;27;93988;-68
2021/12/21 05:02:54;;;;;;;10.17;7.80;;;0.20;99.90;0.20;101414.00;;;;5048144;27;95439;-69
2021/12/21 05:05:20;;;;;;;11.93;7.77;;;1.50;99.90;0.30;101413.00;;;;5039365;27;123833;-70
2021/12/21 05:07:51;;;;;;;14.77;8.37;;;0.50;99.90;0.30;101416.00;;;;5035472;27;92629;-69
2021/12/21 05:10:18;;;;;;;17.73;8.37;;;0.60;99.90;0.30;101413.00;;;;5035848;27;92840;-72
2021/12/21 05:12:44;;;;;;;12.53;8.20;;;1.00;99.90;0.40;101422.00;;;;5034404;27;94486;-70
2021/12/21 05:15:10;;;;;;;8.90;7.03;;;0.80;99.90;0.40;101441.00;;;;5035089;27;101351;-69
2021/12/21 05:17:35;;;;;;;15.47;8.13;;;1.20;99.90;0.50;101445.00;;;;5034086;27;109987;-70
2021/12/21 05:20:02;;;;;;;22.87;8.17;;;0.80;99.90;0.50;101440.00;;;;5035465;27;92803;-70
2021/12/21 05:22:28;;;;;;;12.23;9.13;;;0.80;99.90;0.50;101433.00;;;;5034772;27;95614;-70
2021/12/21 05:24:54;;;;;;;14.40;7.83;;;1.60;99.90;0.60;101426.00;;;;5034470;27;100256;-71
2021/12/21 05:27:21;;;;;;;15.67;8.97;;;0.80;99.90;0.60;101434.00;;;;5038859;27;92578;-71
2021/12/21 05:29:46;;;;;;;16.40;8.67;;;0.90;99.90;0.60;101444.00;;;;5055503;27;92750;-71
2021/12/21 05:32:12;;;;;;;13.37;8.60;;;0.90;99.90;0.70;101442.00;;;;5036296;27;99505;-70
2021/12/21 05:34:39;;;;;;;11.00;8.37;;;1.30;99.90;0.70;101439.00;;;;5044723;27;93230;-70
2021/12/21 05:37:07;;;;;;;13.70;10.00;;;1.80;99.90;0.70;101452.00;;;;5055414;27;92865;-70
2021/12/21 05:39:54;;;;;;;17.20;8.53;;;1.00;99.90;0.70;101443.00;;;;5054878;27;92777;-69
2021/12/21 05:42:19;;;;;;;11.87;8.70;;;1.30;99.90;0.70;101440.00;;;;5053609;27;92150;-69
2021/12/21 05:44:45;;;;;;;14.00;9.03;;;1.00;99.90;0.70;101441.00;;;;5055225;27;105961;-69
2021/12/21 05:47:11;;;;;;;20.77;10.23;;;1.00;99.90;0.70;101441.00;;;;5058082;27;109458;-68
2021/12/21 05:49:37;;;;;;;14.80;9.07;;;1.00;99.90;0.70;101445.00;;;;5053409;27;108673;-68
2021/12/21 05:52:03;;;;;;;12.53;8.67;;;1.10;99.90;0.80;101442.00;;;;5054633;27;92947;-67
2021/12/21 05:54:29;;;;;;;22.33;10.13;;;1.10;99.90;0.80;101437.00;;;;5053069;27;101450;-69
2021/12/21 05:56:55;;;;;;;14.20;9.63;;;1.20;99.90;0.80;101437.00;;;;5053741;27;109546;-70
2021/12/21 05:59:20;;;;;;;15.77;9.23;;;1.60;99.90;0.80;101448.00;;;;5037523;27;94596;-69
2021/12/21 06:01:46;;;;;;;14.77;9.93;;;1.10;99.90;0.80;101438.00;;;;5034761;27;94247;-69
2021/12/21 06:04:12;;;;;;;15.77;10.10;;;1.60;99.90;0.80;101424.00;;;;5022945;27;93932;-69
2021/12/21 06:06:38;;;;;;;17.50;9.73;;;1.10;99.90;0.70;101430.00;;;;5033935;27;109384;-68
2021/12/21 06:09:07;;;;;;;13.10;8.57;;;1.10;99.90;0.70;101446.00;;;;5055298;27;92958;-68
2021/12/21 06:11:40;;;;;;;18.77;10.47;;;1.90;99.90;0.70;101431.00;;;;5054892;27;93043;-68
2021/12/21 06:27:07;;;;;;;16.53;8.83;;;1.90;99.90;0.80;101452.00;;;;5037616;27;93010;-69
2021/12/21 06:29:33;;;;;;;14.27;9.37;;;1.10;99.90;0.80;101445.00;;;;5034892;27;93045;-70
2021/12/21 06:31:58;;;;;;;17.13;9.30;;;1.10;99.90;0.80;101450.00;;;;5019014;27;103869;-69
2021/12/21 06:34:24;;;;;;;19.07;10.20;;;1.10;99.90;0.80;101457.00;;;;5034950;27;108876;-68
2021/12/21 06:36:50;;;;;;;18.30;10.10;;;1.20;99.90;0.80;101449.00;;;;5033490;27;99608;-68
2021/12/21 06:39:16;;;;;;;15.23;9.87;;;1.10;99.90;0.80;101452.00;;;;5029175;27;94209;-68
2021/12/21 06:41:42;;;;;;;17.70;9.20;;;1.20;99.90;0.80;101441.00;;;;5034148;27;107507;-67
2021/12/21 06:44:10;;;;;;;15.10;9.77;;;1.10;99.90;0.80;101443.00;;;;5052655;27;93838;-68
2021/12/21 06:47:08;;;;;;;15.67;10.87;;;1.20;99.90;0.80;101443.00;;;;5034472;27;93055;-67
2021/12/21 06:52:19;;;;;;;16.07;9.93;;;1.10;99.90;0.80;101450.00;;;;5016304;27;92972;-69
2021/12/21 06:54:45;;;;;;;21.07;10.90;;;1.20;99.90;0.90;101455.00;;;;5052248;27;93126;-69
2021/12/21 06:57:10;;;;;;;18.80;10.80;;;1.10;99.90;0.90;101453.00;;;;5030638;27;98357;-68
2021/12/21 06:59:36;;;;;;;15.37;10.50;;;1.10;99.90;0.90;101447.00;;;;5031072;27;108583;-68
2021/12/21 07:02:03;;;;;;;16.77;10.30;;;1.20;99.90;0.90;101447.00;;;;5029190;27;109422;-67
2021/12/21 07:04:29;;;;;;;14.90;10.27;;;1.20;99.90;0.90;101448.00;;;;5029351;27;93858;-67
2021/12/21 07:06:57;;;;;;;19.57;10.53;;;1.20;99.90;0.90;101444.00;;;;5033333;27;97491;-68
2021/12/21 07:09:43;;;;;;;20.27;9.87;;;1.20;99.90;0.90;101429.00;;;;5037278;27;93239;-67
2021/12/21 07:18:09;;;;;;;15.77;10.17;;;1.20;99.90;0.90;101454.00;;;;5035455;27;92681;-68
2021/12/21 07:20:36;;;;;;;19.87;10.00;;;1.30;99.90;0.90;101458.00;;;;5016846;27;92606;-68
2021/12/21 07:23:02;;;;;;;16.23;10.83;;;1.20;99.90;0.90;101460.00;;;;5033277;27;108730;-68
2021/12/21 07:25:29;;;;;;;12.33;9.50;;;1.30;99.90;0.90;101461.00;;;;5028925;27;93136;-68
2021/12/21 07:27:55;;;;;;;13.90;10.03;;;1.20;99.90;1.00;101467.00;;;;5024659;27;92740;-68
2021/12/21 07:30:22;;;;;;;15.13;9.73;;;1.30;99.90;1.00;101459.00;;;;5024963;27;108048;-68
2021/12/21 07:32:47;;;;;;;21.67;11.67;;;1.50;99.90;1.00;101459.00;;;;5021431;27;107078;-67
2021/12/21 07:35:14;;;;;;;12.63;9.10;;;1.30;99.90;1.00;101473.00;;;;5009014;27;116553;-67
2021/12/21 07:37:41;;;;;;;19.87;11.77;;;2.10;99.90;1.00;101470.00;;;;5019941;27;92827;-68
2021/12/21 07:40:08;;;;;;;17.33;9.83;;;2.00;99.90;1.10;101467.00;;;;5028430;27;92873;-67
2021/12/21 07:42:34;;;;;;;17.90;11.00;;;1.40;99.90;1.10;101457.00;;;;5028545;27;110157;-67
2021/12/21 07:45:00;;;;;;;17.10;11.73;;;1.40;99.90;1.10;101467.00;;;;5029645;27;93810;-67
2021/12/21 07:47:27;;;;;;;20.90;11.80;;;2.10;99.90;1.10;101473.00;;;;5021173;27;111898;-67
2021/12/21 07:49:52;;;;;;;18.43;10.00;;;1.40;99.90;1.10;101481.00;;;;5029542;27;92813;-67
2021/12/21 07:52:18;;;;;;;18.17;11.07;;;1.40;99.90;1.10;101458.00;;;;5027412;27;112311;-68
2021/12/21 07:54:45;;;;;;;16.73;11.17;;;2.30;99.90;1.10;101479.00;;;;5024502;27;121810;-68
2021/12/21 07:57:10;;;;;;;17.83;10.83;;;1.50;99.90;1.00;101483.00;;;;5027625;27;98802;-68
2021/12/21 07:59:38;;;;;;;24.60;12.37;;;1.30;99.90;1.10;101472.00;;;;5029038;27;108167;-69
2021/12/21 08:02:05;;;;;;;19.33;11.37;;;1.30;99.90;1.00;101464.00;;;;5024982;27;103445;-69
2021/12/21 08:04:33;;;;;;;19.80;12.07;;;1.30;99.90;1.10;101479.00;;;;5016946;27;93013;-70
2021/12/21 08:07:05;;;;;;;17.40;11.37;;;1.40;99.90;1.10;101471.00;;;;5026779;27;92884;-70
2021/12/21 08:09:38;;;;;;;13.63;9.20;;;1.40;99.90;1.10;101483.00;;;;5029476;27;92950;-70
2021/12/21 08:12:14;;;;;;;14.20;9.53;;;1.40;99.90;1.10;101481.00;;;;5020864;27;93288;-70
2021/12/21 08:14:45;;;;;;;16.67;10.70;;;1.40;99.90;1.10;101494.00;;;;5027200;27;92952;-70
2021/12/21 08:17:11;;;;;;;24.47;10.63;;;1.80;99.90;1.10;101488.00;;;;5003400;27;92813;-70
2021/12/21 08:19:36;;;;;;;19.17;10.40;;;1.50;99.90;1.20;101496.00;;;;5016622;27;109551;-70
2021/12/21 08:22:03;;;;;;;17.30;10.10;;;1.40;99.90;1.20;101488.00;;;;5027505;27;120693;-69
2021/12/21 08:24:33;;;;;;;17.40;9.80;;;1.50;99.90;1.20;101495.00;;;;5025193;27;109073;-70
2021/12/21 08:27:03;;;;;;;14.83;9.83;;;2.10;99.90;1.20;101501.00;;;;5010141;27;93076;-70
2021/12/21 08:29:29;;;;;;;13.70;9.10;;;2.30;99.90;1.20;101497.00;;;;5011297;27;92873;-69
2021/12/21 08:31:54;;;;;;;14.50;9.80;;;1.70;99.90;1.20;101504.00;;;;5009407;27;123042;-70
2021/12/21 08:34:21;;;;;;;20.33;10.03;;;1.60;99.90;1.20;101500.00;;;;5029424;27;93236;-71
2021/12/21 08:36:47;;;;;;;15.07;10.00;;;2.50;99.90;1.20;101500.00;;;;5029565;27;92424;-71
2021/12/21 08:39:13;;;;;;;14.07;8.53;;;1.50;99.90;1.20;101503.00;;;;5028260;27;109150;-71
2021/12/21 08:41:42;;;;;;;13.27;9.33;;;1.60;99.90;1.20;101508.00;;;;5029096;27;93212;-72
2021/12/21 08:44:10;;;;;;;13.37;9.30;;;1.50;99.90;1.20;101512.00;;;;5028588;27;93837;-70
2021/12/21 08:46:39;;;;;;;14.70;9.10;;;1.50;99.90;1.10;101503.00;;;;5020144;27;93051;-71
2021/12/21 08:49:04;;;;;;;14.63;8.53;;;2.20;99.90;1.10;101495.00;;;;5033966;27;92753;-70
2021/12/21 08:51:31;;;;;;;16.00;10.53;;;1.50;99.90;1.10;101501.00;;;;5031916;27;112707;-71
2021/12/21 08:53:56;;;;;;;15.30;10.07;;;2.30;99.90;1.00;101498.00;;;;5031632;27;93111;-69
2021/12/21 08:56:22;;;;;;;18.40;9.87;;;1.40;99.90;1.00;101511.00;;;;5031594;27;96961;-69
2021/12/21 08:58:48;;;;;;;14.63;9.50;;;1.50;99.90;1.00;101507.00;;;;5012863;27;109067;-68
2021/12/21 09:01:14;;;;;;;13.40;8.70;;;2.10;99.90;1.00;101502.00;;;;5031274;27;121407;-68
2021/12/21 09:03:39;;;;;;;14.93;9.83;;;1.40;99.90;0.90;101504.00;;;;5032260;27;92999;-68
2021/12/21 09:06:05;;;;;;;16.90;9.57;;;1.20;99.90;0.90;101509.00;;;;5021907;27;93106;-68
2021/12/21 09:08:31;;;;;;;22.40;10.30;;;2.30;99.90;0.90;101504.00;;;;5038828;27;108483;-69
2021/12/21 09:11:04;;;;;;;13.77;9.77;;;1.20;99.90;1.00;101505.00;;;;5030789;27;93392;-69
2021/12/21 09:13:31;;;;;;;20.00;9.80;;;1.20;99.90;0.90;101509.00;;;;5044274;27;93134;-70
2021/12/21 09:15:57;;;;;;;14.57;9.37;;;1.20;99.90;0.90;101514.00;;;;5037006;27;97234;-69
2021/12/21 09:18:23;;;;;;;14.37;9.87;;;1.30;99.90;0.90;101500.00;;;;5019258;27;92892;-69
2021/12/21 09:20:49;;;;;;;19.83;10.07;;;2.00;99.90;1.00;101506.00;;;;5019965;27;92991;-69
2021/12/21 09:23:15;;;;;;;14.37;9.77;;;1.70;99.90;1.00;101515.00;;;;5002651;27;124707;-69
2021/12/21 09:25:40;;;;;;;14.00;9.07;;;1.90;99.90;1.00;101511.00;;;;5033955;27;97886;-68
2021/12/21 09:28:06;;;;;;;19.57;10.67;;;1.50;99.90;1.00;101513.00;;;;5053148;27;98534;-69
2021/12/21 09:30:32;;;;;;;16.17;9.83;;;1.30;99.90;1.00;101516.00;;;;5010909;27;108261;-70
2021/12/21 09:32:59;;;;;;;14.67;9.30;;;1.30;99.90;1.10;101509.00;;;;5017802;27;93922;-70
2021/12/21 09:35:26;;;;;;;17.17;9.57;;;1.80;99.90;1.10;101514.00;;;;5026559;27;92700;-70
2021/12/21 09:37:55;;;;;;;16.97;10.07;;;1.40;99.90;1.10;101515.00;;;;5013654;27;93041;-70
2021/12/21 09:40:27;;;;;;;15.40;9.00;;;1.70;99.90;1.20;101522.00;;;;5009851;27;93303;-70
2021/12/21 09:42:54;;;;;;;20.80;10.30;;;2.30;99.90;1.20;101504.00;;;;4993115;27;94030;-71
2021/12/21 09:45:20;;;;;;;15.70;11.17;;;1.50;99.90;1.20;101514.00;;;;5014009;27;92714;-71
2021/12/21 09:47:49;;;;;;;14.07;10.33;;;1.50;99.90;1.20;101509.00;;;;5006009;27;92736;-71
2021/12/21 09:50:17;;;;;;;15.93;9.90;;;1.50;99.90;1.30;101505.00;;;;5014628;27;92300;-71
2021/12/21 09:52:43;;;;;;;14.97;10.33;;;1.40;99.90;1.30;101507.00;;;;5011266;27;92942;-72
2021/12/21 09:55:12;;;;;;;20.47;10.87;;;1.60;99.90;1.30;101514.00;;;;4992047;27;92876;-71
2021/12/21 09:57:39;;;;;;;20.30;11.30;;;1.60;99.90;1.40;101508.00;;;;5009647;27;93862;-72
2021/12/21 10:00:10;;;;;;;19.60;9.77;;;1.70;99.90;1.40;101515.00;;;;4992594;27;93606;-72
2021/12/21 10:02:36;;;;;;;15.43;9.87;;;1.70;99.90;1.40;101509.00;;;;5010488;27;108531;-73
2021/12/21 10:05:09;;;;;;;22.17;11.17;;;1.70;99.90;1.50;101502.00;;;;5030149;27;93266;-72
2021/12/21 10:07:36;;;;;;;16.20;8.27;;;1.70;99.90;1.50;101500.00;;;;5023198;27;93124;-71
2021/12/21 10:10:17;;;;;;;15.80;9.47;;;2.60;99.90;1.60;101501.00;;;;4992307;27;93071;-71
2021/12/21 10:12:46;;;;;;;13.67;9.23;;;1.90;99.90;1.60;101501.00;;;;4991777;27;93352;-71
2021/12/21 10:15:22;;;;;;;17.17;10.03;;;1.90;99.90;1.70;101509.00;;;;5011515;27;92142;-72
2021/12/21 10:18:00;;;;;;;17.37;10.83;;;2.00;99.90;1.70;101497.00;;;;5016109;27;95141;-74
2021/12/21 10:20:44;;;;;;;24.13;10.10;;;2.50;99.90;1.70;101505.00;;;;4986243;27;95619;-74
2021/12/21 10:23:13;;;;;;;20.57;9.47;;;1.90;99.90;1.70;101504.00;;;;4973713;27;94817;-75
2021/12/21 10:25:42;;;;;;;16.33;9.13;;;2.00;99.90;1.80;101511.00;;;;5010482;27;92932;-74
2021/12/21 10:28:08;;;;;;;11.53;8.13;;;2.00;99.90;1.80;101515.00;;;;4992398;27;93360;-74
2021/12/21 10:30:34;;;;;;;18.43;10.27;;;2.20;99.90;1.90;101507.00;;;;5020979;27;94044;-73
2021/12/21 10:33:01;;;;;;;11.63;9.17;;;2.30;99.90;1.90;101496.00;;;;4992721;27;113716;-74
2021/12/21 10:35:32;;;;;;;17.57;9.90;;;2.20;99.90;1.90;101497.00;;;;5010345;27;92985;-73
2021/12/21 10:38:02;;;;;;;20.60;9.40;;;2.20;99.90;1.90;101499.00;;;;5010455;27;92951;-74
2021/12/21 10:40:28;;;;;;;12.67;9.17;;;2.20;99.90;1.90;101500.00;;;;5024071;27;92630;-74
2021/12/21 10:42:58;;;;;;;23.13;10.87;;;2.90;99.90;1.90;101499.00;;;;5010715;27;94436;-74
2021/12/21 10:45:34;;;;;;;14.20;8.17;;;1.50;99.90;1.90;101502.00;;;;5019243;27;92873;-77
2021/12/21 10:48:03;;;;;;;18.13;10.43;;;2.20;99.90;1.90;101506.00;;;;4985775;27;93987;-74
2021/12/21 10:50:32;;;;;;;13.90;9.10;;;2.30;99.90;2.00;101507.00;;;;4989647;27;94134;-76
2021/12/21 10:52:58;;;;;;;12.63;8.87;;;2.40;99.90;2.00;101513.00;;;;4991115;27;93043;-74
2021/12/21 10:55:38;;;;;;;16.60;9.63;;;2.30;99.90;2.00;101499.00;;;;5009796;27;93061;-74
2021/12/21 10:58:16;;;;;;;16.37;10.20;;;2.30;99.90;2.10;101494.00;;;;4991428;27;92924;-74
2021/12/21 11:00:47;;;;;;;16.43;10.40;;;2.30;99.90;2.10;101494.00;;;;5003646;27;92984;-74
2021/12/21 11:03:17;;;;;;;14.63;9.50;;;2.40;99.90;2.10;101500.00;;;;5009154;27;95850;-74
2021/12/21 11:05:46;;;;;;;16.77;10.17;;;2.30;99.90;2.10;101488.00;;;;4992074;27;92330;-77
2021/12/21 11:08:24;;;;;;;17.03;10.17;;;2.30;99.90;2.10;101494.00;;;;4993205;27;92927;-79
2021/12/21 11:10:54;;;;;;;17.17;8.93;;;2.30;99.90;2.10;101495.00;;;;4984345;27;95713;-77
2021/12/21 11:13:20;;;;;;;19.17;9.87;;;2.70;99.90;2.10;101483.00;;;;4985384;27;95685;-78
2021/12/21 11:15:53;;;;;;;13.67;9.17;;;2.40;99.90;2.10;101488.00;;;;5026740;27;92969;-77
2021/12/21 11:18:21;;;;;;;21.80;9.73;;;2.30;99.90;2.10;101474.00;;;;5029455;27;93036;-74
2021/12/21 11:20:52;;;;;;;15.00;8.77;;;2.90;99.90;2.10;101474.00;;;;5041723;27;110390;-74
2021/12/21 11:23:21;;;;;;;13.57;8.73;;;2.30;99.90;2.10;101485.00;;;;5010642;27;92979;-73
2021/12/21 11:25:49;;;;;;;14.97;9.13;;;2.40;99.90;2.10;101480.00;;;;5028122;27;92714;-73
2021/12/21 11:28:26;;;;;;;18.13;8.93;;;2.40;99.90;2.10;101480.00;;;;5026540;27;92822;-72
2021/12/21 11:30:58;;;;;;;10.43;7.60;;;2.40;99.90;2.10;101471.00;;;;5030209;27;92152;-72
2021/12/21 11:33:26;;;;;;;15.23;9.17;;;2.40;99.90;2.20;101475.00;;;;5023212;27;93050;-72
2021/12/21 11:38:39;;;;;;;16.07;9.57;;;2.40;99.90;2.20;101472.00;;;;5012756;27;93893;-71
2021/12/21 11:41:05;;;;;;;15.87;8.53;;;2.50;99.90;2.20;101462.00;;;;5031337;27;122166;-70
2021/12/21 11:43:41;;;;;;;13.13;7.67;;;2.40;99.90;2.20;101467.00;;;;5028863;27;121815;-70
2021/12/21 11:46:13;;;;;;;14.70;7.27;;;2.50;99.90;2.30;101470.00;;;;5010541;27;93160;-71
2021/12/21 11:49:00;;;;;;;10.57;7.20;;;2.50;99.90;2.30;101476.00;;;;5010836;27;92953;-71
2021/12/21 11:51:27;;;;;;;11.27;6.27;;;2.60;99.90;2.30;101474.00;;;;5014482;27;97267;-70
2021/12/21 11:53:55;;;;;;;14.10;7.30;;;2.50;99.90;2.30;101473.00;;;;5010901;27;92992;-70
2021/12/21 11:56:26;;;;;;;9.30;5.83;;;3.30;99.90;2.30;101481.00;;;;5030048;27;96884;-73
2021/12/21 11:58:55;;;;;;;12.70;7.07;;;2.80;99.90;2.30;101485.00;;;;5017210;27;93114;-69
2021/12/21 12:01:27;;;;;;;13.17;6.53;;;2.60;99.90;2.30;101473.00;;;;5029009;27;110164;-69
2021/12/21 12:04:04;;;;;;;7.57;4.93;;;2.50;99.90;2.20;101481.00;;;;5029711;27;95002;-70
2021/12/21 12:06:54;;;;;;;7.90;5.23;;;2.60;99.90;2.20;101475.00;;;;5030177;27;92879;-68
2021/12/21 12:09:32;;;;;;;15.17;6.33;;;2.50;99.90;2.30;101472.00;;;;5017759;27;92852;-70
2021/12/21 12:12:17;;;;;;;9.63;5.77;;;2.50;99.90;2.30;101478.00;;;;5029214;27;94097;-73
2021/12/21 12:14:47;;;;;;;7.53;5.57;;;2.60;99.90;2.30;101470.00;;;;5010422;27;93021;-72